PWSweather.com
Personal Weather Stations
Station Observations
ITROMSHA6
HarstadNO 9407

HarstadNO 9407

Lat: 68.7814767, Lon: 16.5297091

Elevation: 145

Station Type: Davis Vantage Pro2

High Low Average
Temperature 57.5°F14.2°C 47.3°F8.5°C 52.8°F11.6°C
Dew Point 45.5°F7.5°C 42.4°F5.8°C 44.1°F6.7°C
Winds 18.0 mph 29.0 kmh Calm Calm 7.0 mph SW11.3 kmh SW
Wind Gusts 27.0 mph43.5 kmh -- 3.0 mph4.8 kmh
Humidity 89% 60% 72%
Pressure 29.58 in1001.7 mb 29.50 in999.0 mb -
Precipitation 0.02 in0.5 mm - -
Hour Temp Dew Point Humidity Winds Wind Gusts Pressure Precip Precip Rate Daily Precip Total
06:00 AM 47.4°F8.6°C 44.1°F6.7°C 88% Calm Calm 4.0 mph6.4 kmh 29.57 in1001.4 mb 0.00 in0.0 mm 0.00 in0.0 mm 0.00 in0.0 mm
06:05 AM 47.4°F8.6°C 44.1°F6.7°C 88% 3.0 mph SW4.8 kmh SW -- 29.57 in1001.4 mb 0.00 in0.0 mm 0.00 in0.0 mm 0.00 in0.0 mm
06:10 AM 47.4°F8.6°C 44.1°F6.7°C 88% 1.0 mph SSW1.6 kmh SSW -- 29.58 in1001.7 mb 0.00 in0.0 mm 0.00 in0.0 mm 0.00 in0.0 mm
06:15 AM 47.3°F8.5°C 44.2°F6.8°C 89% Calm Calm -- 29.57 in1001.4 mb 0.00 in0.0 mm 0.00 in0.0 mm 0.00 in0.0 mm
06:20 AM 47.7°F8.7°C 44.6°F7.0°C 89% 1.0 mph SE1.6 kmh SE -- 29.57 in1001.4 mb 0.00 in0.0 mm 0.00 in0.0 mm 0.00 in0.0 mm
06:25 AM 48.4°F9.1°C 45.0°F7.2°C 88% 2.0 mph E3.2 kmh E 5.0 mph8.0 kmh 29.57 in1001.4 mb 0.00 in0.0 mm 0.00 in0.0 mm 0.00 in0.0 mm
06:30 AM 49.2°F9.6°C 45.5°F7.5°C 87% 3.0 mph E4.8 kmh E -- 29.57 in1001.4 mb 0.00 in0.0 mm 0.00 in0.0 mm 0.00 in0.0 mm
06:35 AM 50.0°F10.0°C 45.3°F7.4°C 84% 2.0 mph E3.2 kmh E -- 29.57 in1001.4 mb 0.00 in0.0 mm 0.00 in0.0 mm 0.00 in0.0 mm
06:40 AM 50.2°F10.1°C 45.0°F7.2°C 82% Calm Calm -- 29.57 in1001.4 mb 0.00 in0.0 mm 0.00 in0.0 mm 0.00 in0.0 mm
06:45 AM 50.1°F10.1°C 45.0°F7.2°C 82% 2.0 mph SW3.2 kmh SW -- 29.57 in1001.4 mb 0.00 in0.0 mm 0.00 in0.0 mm 0.00 in0.0 mm
06:50 AM 49.9°F9.9°C 44.6°F7.0°C 82% Calm Calm 5.0 mph8.0 kmh 29.57 in1001.4 mb 0.00 in0.0 mm 0.00 in0.0 mm 0.00 in0.0 mm
06:55 AM 49.9°F9.9°C 44.6°F7.0°C 82% 3.0 mph SW4.8 kmh SW -- 29.57 in1001.4 mb 0.00 in0.0 mm 0.00 in0.0 mm 0.00 in0.0 mm
07:00 AM 50.2°F10.1°C 44.6°F7.0°C 81% 3.0 mph WSW4.8 kmh WSW -- 29.56 in1001.0 mb 0.00 in0.0 mm 0.00 in0.0 mm 0.00 in0.0 mm
07:05 AM 50.5°F10.3°C 44.6°F7.0°C 80% 3.0 mph SW4.8 kmh SW -- 29.57 in1001.4 mb 0.00 in0.0 mm 0.00 in0.0 mm 0.00 in0.0 mm
07:10 AM 50.8°F10.4°C 44.4°F6.9°C 79% 5.0 mph WSW8.0 kmh WSW -- 29.57 in1001.4 mb 0.00 in0.0 mm 0.00 in0.0 mm 0.00 in0.0 mm
07:15 AM 51.3°F10.7°C 44.6°F7.0°C 78% 3.0 mph SSW4.8 kmh SSW 14.0 mph22.5 kmh 29.57 in1001.4 mb 0.00 in0.0 mm 0.00 in0.0 mm 0.00 in0.0 mm
07:20 AM 52.0°F11.1°C 44.6°F7.0°C 76% 9.0 mph WSW14.5 kmh WSW -- 29.56 in1001.0 mb 0.00 in0.0 mm 0.00 in0.0 mm 0.00 in0.0 mm
07:25 AM 52.3°F11.3°C 44.6°F7.0°C 75% 5.0 mph SW8.0 kmh SW -- 29.56 in1001.0 mb 0.00 in0.0 mm 0.00 in0.0 mm 0.00 in0.0 mm
07:30 AM 52.7°F11.5°C 44.6°F7.0°C 74% 5.0 mph SW8.0 kmh SW -- 29.56 in1001.0 mb 0.00 in0.0 mm 0.00 in0.0 mm 0.00 in0.0 mm
07:35 AM 52.9°F11.6°C 44.4°F6.9°C 73% 7.0 mph WSW11.3 kmh WSW -- 29.56 in1001.0 mb 0.00 in0.0 mm 0.00 in0.0 mm 0.00 in0.0 mm
07:40 AM 53.1°F11.7°C 44.2°F6.8°C 72% 9.0 mph SW14.5 kmh SW 15.0 mph24.1 kmh 29.56 in1001.0 mb 0.00 in0.0 mm 0.00 in0.0 mm 0.00 in0.0 mm
07:45 AM 53.0°F11.7°C 44.2°F6.8°C 72% 6.0 mph WSW9.7 kmh WSW -- 29.56 in1001.0 mb 0.00 in0.0 mm 0.00 in0.0 mm 0.00 in0.0 mm
07:50 AM 52.9°F11.6°C 43.7°F6.5°C 71% 3.0 mph SW4.8 kmh SW -- 29.56 in1001.0 mb 0.00 in0.0 mm 0.00 in0.0 mm 0.00 in0.0 mm
07:55 AM 53.0°F11.7°C 44.2°F6.8°C 72% 3.0 mph SW4.8 kmh SW -- 29.56 in1001.0 mb 0.00 in0.0 mm 0.00 in0.0 mm 0.00 in0.0 mm
08:00 AM 53.3°F11.8°C 44.1°F6.7°C 71% 7.0 mph SW11.3 kmh SW -- 29.56 in1001.0 mb 0.00 in0.0 mm 0.00 in0.0 mm 0.00 in0.0 mm
08:05 AM 53.3°F11.8°C 43.7°F6.5°C 70% 9.0 mph S14.5 kmh S 13.0 mph20.9 kmh 29.56 in1001.0 mb 0.00 in0.0 mm 0.00 in0.0 mm 0.00 in0.0 mm
08:10 AM 53.1°F11.7°C 43.2°F6.2°C 69% 10.0 mph S16.1 kmh S -- 29.56 in1001.0 mb 0.00 in0.0 mm 0.00 in0.0 mm 0.00 in0.0 mm
08:15 AM 53.0°F11.7°C 43.5°F6.4°C 70% 6.0 mph SW9.7 kmh SW -- 29.56 in1001.0 mb 0.00 in0.0 mm 0.00 in0.0 mm 0.00 in0.0 mm
08:20 AM 52.9°F11.6°C 43.3°F6.3°C 70% 4.0 mph WSW6.4 kmh WSW -- 29.56 in1001.0 mb 0.00 in0.0 mm 0.00 in0.0 mm 0.00 in0.0 mm
08:25 AM 52.9°F11.6°C 43.7°F6.5°C 71% 7.0 mph WSW11.3 kmh WSW -- 29.56 in1001.0 mb 0.00 in0.0 mm 0.00 in0.0 mm 0.00 in0.0 mm
08:30 AM 53.1°F11.7°C 43.5°F6.4°C 70% 2.0 mph S3.2 kmh S 11.0 mph17.7 kmh 29.56 in1001.0 mb 0.00 in0.0 mm 0.00 in0.0 mm 0.00 in0.0 mm
08:35 AM 53.1°F11.7°C 43.5°F6.4°C 70% 6.0 mph SW9.7 kmh SW -- 29.57 in1001.4 mb 0.00 in0.0 mm 0.00 in0.0 mm 0.00 in0.0 mm
08:40 AM 53.1°F11.7°C 43.5°F6.4°C 70% 4.0 mph SW6.4 kmh SW -- 29.57 in1001.4 mb 0.00 in0.0 mm 0.00 in0.0 mm 0.00 in0.0 mm
08:45 AM 53.2°F11.8°C 43.7°F6.5°C 70% 4.0 mph S6.4 kmh S -- 29.57 in1001.4 mb 0.00 in0.0 mm 0.00 in0.0 mm 0.00 in0.0 mm
08:50 AM 53.3°F11.8°C 43.7°F6.5°C 70% 5.0 mph SSW8.0 kmh SSW -- 29.57 in1001.4 mb 0.00 in0.0 mm 0.00 in0.0 mm 0.00 in0.0 mm
08:55 AM 53.5°F11.9°C 43.9°F6.6°C 70% 5.0 mph SW8.0 kmh SW 10.0 mph16.1 kmh 29.57 in1001.4 mb 0.00 in0.0 mm 0.00 in0.0 mm 0.00 in0.0 mm
09:00 AM 53.6°F12.0°C 44.1°F6.7°C 70% 4.0 mph SSW6.4 kmh SSW -- 29.56 in1001.0 mb 0.00 in0.0 mm 0.00 in0.0 mm 0.00 in0.0 mm
09:05 AM 53.7°F12.1°C 44.6°F7.0°C 71% 4.0 mph ENE6.4 kmh ENE -- 29.56 in1001.0 mb 0.00 in0.0 mm 0.00 in0.0 mm 0.00 in0.0 mm
09:10 AM 53.8°F12.1°C 44.2°F6.8°C 70% 5.0 mph SSW8.0 kmh SSW -- 29.56 in1001.0 mb 0.00 in0.0 mm 0.00 in0.0 mm 0.00 in0.0 mm
09:15 AM 54.0°F12.2°C 44.4°F6.9°C 70% 4.0 mph SSW6.4 kmh SSW -- 29.56 in1001.0 mb 0.00 in0.0 mm 0.00 in0.0 mm 0.00 in0.0 mm
09:20 AM 54.3°F12.4°C 44.8°F7.1°C 70% 4.0 mph ENE6.4 kmh ENE 9.0 mph14.5 kmh 29.56 in1001.0 mb 0.00 in0.0 mm 0.00 in0.0 mm 0.00 in0.0 mm
09:25 AM 54.6°F12.6°C 44.8°F7.1°C 69% 6.0 mph SSE9.7 kmh SSE -- 29.56 in1001.0 mb 0.00 in0.0 mm 0.00 in0.0 mm 0.00 in0.0 mm
09:30 AM 54.5°F12.5°C 44.2°F6.8°C 68% 4.0 mph SE6.4 kmh SE -- 29.56 in1001.0 mb 0.00 in0.0 mm 0.00 in0.0 mm 0.00 in0.0 mm
09:35 AM 54.2°F12.3°C 44.2°F6.8°C 69% 3.0 mph SSW4.8 kmh SSW -- 29.56 in1001.0 mb 0.00 in0.0 mm 0.00 in0.0 mm 0.00 in0.0 mm
09:40 AM 54.1°F12.3°C 44.6°F7.0°C 70% 5.0 mph SW8.0 kmh SW -- 29.56 in1001.0 mb 0.00 in0.0 mm 0.00 in0.0 mm 0.00 in0.0 mm
09:45 AM 54.0°F12.2°C 44.4°F6.9°C 70% 2.0 mph SSE3.2 kmh SSE 11.0 mph17.7 kmh 29.56 in1001.0 mb 0.00 in0.0 mm 0.00 in0.0 mm 0.00 in0.0 mm
09:50 AM 54.1°F12.3°C 44.6°F7.0°C 70% 5.0 mph W8.0 kmh W -- 29.56 in1001.0 mb 0.00 in0.0 mm 0.00 in0.0 mm 0.00 in0.0 mm
09:55 AM 54.1°F12.3°C 44.6°F7.0°C 70% 7.0 mph WSW11.3 kmh WSW -- 29.56 in1001.0 mb 0.00 in0.0 mm 0.00 in0.0 mm 0.00 in0.0 mm
10:00 AM 54.0°F12.2°C 44.4°F6.9°C 70% 4.0 mph SE6.4 kmh SE -- 29.56 in1001.0 mb 0.00 in0.0 mm 0.00 in0.0 mm 0.00 in0.0 mm
10:05 AM 54.0°F12.2°C 44.4°F6.9°C 70% 4.0 mph SW6.4 kmh SW -- 29.56 in1001.0 mb 0.00 in0.0 mm 0.00 in0.0 mm 0.00 in0.0 mm
10:10 AM 54.1°F12.3°C 44.6°F7.0°C 70% 1.0 mph S1.6 kmh S 8.0 mph12.9 kmh 29.56 in1001.0 mb 0.00 in0.0 mm 0.00 in0.0 mm 0.00 in0.0 mm
10:15 AM 54.5°F12.5°C 45.0°F7.2°C 70% 3.0 mph W4.8 kmh W -- 29.56 in1001.0 mb 0.00 in0.0 mm 0.00 in0.0 mm 0.00 in0.0 mm
10:20 AM 54.8°F12.7°C 45.0°F7.2°C 69% 1.0 mph SSW1.6 kmh SSW -- 29.56 in1001.0 mb 0.00 in0.0 mm 0.00 in0.0 mm 0.00 in0.0 mm
10:25 AM 54.9°F12.7°C 44.4°F6.9°C 68% 2.0 mph WSW3.2 kmh WSW -- 29.56 in1001.0 mb 0.00 in0.0 mm 0.00 in0.0 mm 0.00 in0.0 mm
10:30 AM 55.0°F12.8°C 44.2°F6.8°C 67% 2.0 mph SW3.2 kmh SW -- 29.56 in1001.0 mb 0.00 in0.0 mm 0.00 in0.0 mm 0.00 in0.0 mm
10:35 AM 55.1°F12.8°C 44.2°F6.8°C 67% 4.0 mph WSW6.4 kmh WSW 8.0 mph12.9 kmh 29.56 in1001.0 mb 0.00 in0.0 mm 0.00 in0.0 mm 0.00 in0.0 mm
10:40 AM 55.2°F12.9°C 44.1°F6.7°C 66% 6.0 mph S9.7 kmh S -- 29.56 in1001.0 mb 0.00 in0.0 mm 0.00 in0.0 mm 0.00 in0.0 mm
10:45 AM 55.1°F12.8°C 43.5°F6.4°C 65% 9.0 mph S14.5 kmh S -- 29.56 in1001.0 mb 0.00 in0.0 mm 0.00 in0.0 mm 0.00 in0.0 mm
10:50 AM 55.0°F12.8°C 43.5°F6.4°C 65% 5.0 mph SSW8.0 kmh SSW -- 29.56 in1001.0 mb 0.00 in0.0 mm 0.00 in0.0 mm 0.00 in0.0 mm
10:55 AM 55.0°F12.8°C 43.5°F6.4°C 65% 10.0 mph SSW16.1 kmh SSW -- 29.56 in1001.0 mb 0.00 in0.0 mm 0.00 in0.0 mm 0.00 in0.0 mm
11:00 AM 55.1°F12.8°C 43.9°F6.6°C 66% 1.0 mph SSE1.6 kmh SSE 15.0 mph24.1 kmh 29.55 in1000.7 mb 0.00 in0.0 mm 0.00 in0.0 mm 0.00 in0.0 mm
11:05 AM 55.2°F12.9°C 44.1°F6.7°C 66% 3.0 mph SW4.8 kmh SW -- 29.55 in1000.7 mb 0.00 in0.0 mm 0.00 in0.0 mm 0.00 in0.0 mm
11:10 AM 55.3°F12.9°C 43.7°F6.5°C 65% 14.0 mph WSW22.5 kmh WSW -- 29.55 in1000.7 mb 0.00 in0.0 mm 0.00 in0.0 mm 0.00 in0.0 mm
11:15 AM 55.3°F12.9°C 43.7°F6.5°C 65% 11.0 mph S17.7 kmh S -- 29.56 in1001.0 mb 0.00 in0.0 mm 0.00 in0.0 mm 0.00 in0.0 mm
11:20 AM 55.3°F12.9°C 43.7°F6.5°C 65% 7.0 mph SE11.3 kmh SE -- 29.56 in1001.0 mb 0.00 in0.0 mm 0.00 in0.0 mm 0.00 in0.0 mm
11:25 AM 55.4°F13.0°C 43.9°F6.6°C 65% 7.0 mph SW11.3 kmh SW 19.0 mph30.6 kmh 29.55 in1000.7 mb 0.00 in0.0 mm 0.00 in0.0 mm 0.00 in0.0 mm
11:30 AM 55.5°F13.1°C 44.1°F6.7°C 65% 5.0 mph S8.0 kmh S -- 29.55 in1000.7 mb 0.00 in0.0 mm 0.00 in0.0 mm 0.00 in0.0 mm
11:35 AM 55.7°F13.2°C 44.2°F6.8°C 65% 5.0 mph S8.0 kmh S -- 29.55 in1000.7 mb 0.00 in0.0 mm 0.00 in0.0 mm 0.00 in0.0 mm
11:40 AM 56.0°F13.3°C 43.9°F6.6°C 64% 5.0 mph SW8.0 kmh SW -- 29.55 in1000.7 mb 0.00 in0.0 mm 0.00 in0.0 mm 0.00 in0.0 mm
11:45 AM 56.3°F13.5°C 43.9°F6.6°C 63% 7.0 mph SSW11.3 kmh SSW -- 29.55 in1000.7 mb 0.00 in0.0 mm 0.00 in0.0 mm 0.00 in0.0 mm
11:50 AM 56.6°F13.7°C 43.7°F6.5°C 62% 8.0 mph WSW12.9 kmh WSW 15.0 mph24.1 kmh 29.55 in1000.7 mb 0.00 in0.0 mm 0.00 in0.0 mm 0.00 in0.0 mm
11:55 AM 56.7°F13.7°C 43.3°F6.3°C 61% 11.0 mph SSE17.7 kmh SSE -- 29.55 in1000.7 mb 0.00 in0.0 mm 0.00 in0.0 mm 0.00 in0.0 mm
12:00 PM 56.7°F13.7°C 43.3°F6.3°C 61% 8.0 mph SW12.9 kmh SW -- 29.55 in1000.7 mb 0.00 in0.0 mm 0.00 in0.0 mm 0.00 in0.0 mm
12:05 PM 56.8°F13.8°C 43.2°F6.2°C 60% 5.0 mph SW8.0 kmh SW -- 29.55 in1000.7 mb 0.00 in0.0 mm 0.00 in0.0 mm 0.00 in0.0 mm
12:10 PM 56.8°F13.8°C 43.5°F6.4°C 61% 11.0 mph SW17.7 kmh SW -- 29.55 in1000.7 mb 0.00 in0.0 mm 0.00 in0.0 mm 0.00 in0.0 mm
12:15 PM 56.9°F13.8°C 43.2°F6.2°C 60% 6.0 mph SW9.7 kmh SW 15.0 mph24.1 kmh 29.55 in1000.7 mb 0.00 in0.0 mm 0.00 in0.0 mm 0.00 in0.0 mm
12:20 PM 57.1°F13.9°C 43.7°F6.5°C 61% 2.0 mph SSW3.2 kmh SSW -- 29.55 in1000.7 mb 0.00 in0.0 mm 0.00 in0.0 mm 0.00 in0.0 mm
12:25 PM 57.5°F14.2°C 43.7°F6.5°C 60% 8.0 mph SSW12.9 kmh SSW -- 29.54 in1000.3 mb 0.00 in0.0 mm 0.00 in0.0 mm 0.00 in0.0 mm
12:30 PM 57.4°F14.1°C 43.5°F6.4°C 60% 8.0 mph S12.9 kmh S -- 29.55 in1000.7 mb 0.00 in0.0 mm 0.00 in0.0 mm 0.00 in0.0 mm
12:35 PM 57.0°F13.9°C 43.7°F6.5°C 61% 9.0 mph SSW14.5 kmh SSW -- 29.55 in1000.7 mb 0.00 in0.0 mm 0.00 in0.0 mm 0.00 in0.0 mm
12:40 PM 56.8°F13.8°C 43.5°F6.4°C 61% 7.0 mph SW11.3 kmh SW 25.0 mph40.2 kmh 29.55 in1000.7 mb 0.00 in0.0 mm 0.00 in0.0 mm 0.00 in0.0 mm
12:45 PM 56.4°F13.6°C 44.1°F6.7°C 63% 7.0 mph SSW11.3 kmh SSW -- 29.55 in1000.7 mb 0.00 in0.0 mm 0.00 in0.0 mm 0.00 in0.0 mm
12:50 PM 56.4°F13.6°C 44.8°F7.1°C 65% 8.0 mph S12.9 kmh S -- 29.55 in1000.7 mb 0.00 in0.0 mm 0.00 in0.0 mm 0.00 in0.0 mm
12:55 PM 56.0°F13.3°C 44.4°F6.9°C 65% 5.0 mph S8.0 kmh S -- 29.55 in1000.7 mb 0.00 in0.0 mm 0.00 in0.0 mm 0.00 in0.0 mm
01:00 PM 56.1°F13.4°C 45.0°F7.2°C 66% 7.0 mph SW11.3 kmh SW -- 29.54 in1000.3 mb 0.00 in0.0 mm 0.00 in0.0 mm 0.00 in0.0 mm
01:05 PM 56.0°F13.3°C 44.4°F6.9°C 65% 4.0 mph SW6.4 kmh SW 18.0 mph29.0 kmh 29.54 in1000.3 mb 0.00 in0.0 mm 0.00 in0.0 mm 0.00 in0.0 mm
01:10 PM 56.0°F13.3°C 43.9°F6.6°C 64% 13.0 mph WSW20.9 kmh WSW -- 29.54 in1000.3 mb 0.00 in0.0 mm 0.00 in0.0 mm 0.00 in0.0 mm
01:15 PM 56.2°F13.4°C 45.0°F7.2°C 66% 7.0 mph SSW11.3 kmh SSW -- 29.54 in1000.3 mb 0.00 in0.0 mm 0.00 in0.0 mm 0.00 in0.0 mm
01:20 PM 56.4°F13.6°C 44.4°F6.9°C 64% 4.0 mph WSW6.4 kmh WSW -- 29.54 in1000.3 mb 0.00 in0.0 mm 0.00 in0.0 mm 0.00 in0.0 mm
01:25 PM 56.4°F13.6°C 44.4°F6.9°C 64% 9.0 mph SW14.5 kmh SW -- 29.54 in1000.3 mb 0.00 in0.0 mm 0.00 in0.0 mm 0.00 in0.0 mm
01:30 PM 56.3°F13.5°C 44.2°F6.8°C 64% 6.0 mph SW9.7 kmh SW 15.0 mph24.1 kmh 29.54 in1000.3 mb 0.00 in0.0 mm 0.00 in0.0 mm 0.00 in0.0 mm
01:35 PM 56.3°F13.5°C 44.2°F6.8°C 64% 3.0 mph SW4.8 kmh SW -- 29.54 in1000.3 mb 0.00 in0.0 mm 0.00 in0.0 mm 0.00 in0.0 mm
01:40 PM 56.2°F13.4°C 44.6°F7.0°C 65% 9.0 mph SW14.5 kmh SW -- 29.55 in1000.7 mb 0.00 in0.0 mm 0.00 in0.0 mm 0.00 in0.0 mm
01:45 PM 55.9°F13.3°C 45.1°F7.3°C 67% 10.0 mph SW16.1 kmh SW -- 29.55 in1000.7 mb 0.00 in0.0 mm 0.00 in0.0 mm 0.00 in0.0 mm
01:50 PM 55.3°F12.9°C 44.8°F7.1°C 68% 3.0 mph WSW4.8 kmh WSW -- 29.55 in1000.7 mb 0.00 in0.0 mm 0.00 in0.0 mm 0.00 in0.0 mm
01:55 PM 55.2°F12.9°C 44.8°F7.1°C 68% 3.0 mph SW4.8 kmh SW 24.0 mph38.6 kmh 29.54 in1000.3 mb 0.00 in0.0 mm 0.00 in0.0 mm 0.00 in0.0 mm
02:00 PM 55.0°F12.8°C 45.5°F7.5°C 70% 5.0 mph W8.0 kmh W -- 29.54 in1000.3 mb 0.00 in0.0 mm 0.00 in0.0 mm 0.00 in0.0 mm
02:05 PM 54.8°F12.7°C 45.3°F7.4°C 70% 6.0 mph WSW9.7 kmh WSW -- 29.54 in1000.3 mb 0.00 in0.0 mm 0.00 in0.0 mm 0.00 in0.0 mm
02:10 PM 55.0°F12.8°C 45.5°F7.5°C 70% 7.0 mph SW11.3 kmh SW -- 29.54 in1000.3 mb 0.00 in0.0 mm 0.00 in0.0 mm 0.00 in0.0 mm
02:15 PM 55.0°F12.8°C 45.5°F7.5°C 70% 5.0 mph WSW8.0 kmh WSW -- 29.55 in1000.7 mb 0.00 in0.0 mm 0.00 in0.0 mm 0.00 in0.0 mm
02:20 PM 54.6°F12.6°C 45.5°F7.5°C 71% 5.0 mph SW8.0 kmh SW 15.0 mph24.1 kmh 29.54 in1000.3 mb 0.00 in0.0 mm 0.00 in0.0 mm 0.00 in0.0 mm
02:25 PM 54.4°F12.4°C 45.5°F7.5°C 72% 5.0 mph WSW8.0 kmh WSW -- 29.54 in1000.3 mb 0.00 in0.0 mm 0.00 in0.0 mm 0.00 in0.0 mm
02:30 PM 54.3°F12.4°C 45.5°F7.5°C 72% 7.0 mph SW11.3 kmh SW -- 29.54 in1000.3 mb 0.00 in0.0 mm 0.00 in0.0 mm 0.00 in0.0 mm
02:35 PM 54.4°F12.4°C 45.5°F7.5°C 72% 5.0 mph WSW8.0 kmh WSW -- 29.54 in1000.3 mb 0.00 in0.0 mm 0.00 in0.0 mm 0.00 in0.0 mm
02:40 PM 54.6°F12.6°C 45.1°F7.3°C 70% 14.0 mph SW22.5 kmh SW -- 29.54 in1000.3 mb 0.00 in0.0 mm 0.00 in0.0 mm 0.00 in0.0 mm
02:45 PM 54.8°F12.7°C 45.0°F7.2°C 69% 9.0 mph SW14.5 kmh SW 17.0 mph27.4 kmh 29.54 in1000.3 mb 0.00 in0.0 mm 0.00 in0.0 mm 0.00 in0.0 mm
02:50 PM 54.9°F12.7°C 44.4°F6.9°C 68% 9.0 mph SW14.5 kmh SW -- 29.54 in1000.3 mb 0.00 in0.0 mm 0.00 in0.0 mm 0.00 in0.0 mm
02:55 PM 54.9°F12.7°C 45.0°F7.2°C 69% 5.0 mph W8.0 kmh W -- 29.53 in1000.0 mb 0.00 in0.0 mm 0.00 in0.0 mm 0.00 in0.0 mm
03:00 PM 55.2°F12.9°C 44.4°F6.9°C 67% 6.0 mph SSW9.7 kmh SSW -- 29.54 in1000.3 mb 0.00 in0.0 mm 0.00 in0.0 mm 0.00 in0.0 mm
03:05 PM 55.4°F13.0°C 43.9°F6.6°C 65% 11.0 mph SW17.7 kmh SW -- 29.53 in1000.0 mb 0.00 in0.0 mm 0.00 in0.0 mm 0.00 in0.0 mm
03:10 PM 55.4°F13.0°C 43.9°F6.6°C 65% 12.0 mph SW19.3 kmh SW 23.0 mph37.0 kmh 29.53 in1000.0 mb 0.00 in0.0 mm 0.00 in0.0 mm 0.00 in0.0 mm
03:15 PM 55.5°F13.1°C 44.4°F6.9°C 66% 12.0 mph SW19.3 kmh SW -- 29.54 in1000.3 mb 0.00 in0.0 mm 0.00 in0.0 mm 0.00 in0.0 mm
03:20 PM 55.3°F12.9°C 44.4°F6.9°C 67% 9.0 mph SW14.5 kmh SW -- 29.54 in1000.3 mb 0.00 in0.0 mm 0.00 in0.0 mm 0.00 in0.0 mm
03:25 PM 55.2°F12.9°C 45.1°F7.3°C 69% 8.0 mph SSW12.9 kmh SSW -- 29.54 in1000.3 mb 0.00 in0.0 mm 0.00 in0.0 mm 0.00 in0.0 mm
03:30 PM 54.9°F12.7°C 45.0°F7.2°C 69% 5.0 mph SW8.0 kmh SW -- 29.54 in1000.3 mb 0.00 in0.0 mm 0.00 in0.0 mm 0.00 in0.0 mm
03:35 PM 54.6°F12.6°C 45.1°F7.3°C 70% 11.0 mph SW17.7 kmh SW 17.0 mph27.4 kmh 29.54 in1000.3 mb 0.00 in0.0 mm 0.00 in0.0 mm 0.00 in0.0 mm
03:40 PM 54.4°F12.4°C 44.8°F7.1°C 70% 5.0 mph SW8.0 kmh SW -- 29.54 in1000.3 mb 0.00 in0.0 mm 0.00 in0.0 mm 0.00 in0.0 mm
03:45 PM 54.4°F12.4°C 45.1°F7.3°C 71% 8.0 mph SW12.9 kmh SW -- 29.54 in1000.3 mb 0.00 in0.0 mm 0.00 in0.0 mm 0.00 in0.0 mm
03:50 PM 54.3°F12.4°C 45.5°F7.5°C 72% 7.0 mph WSW11.3 kmh WSW -- 29.54 in1000.3 mb 0.00 in0.0 mm 0.00 in0.0 mm 0.00 in0.0 mm
03:55 PM 54.0°F12.2°C 45.1°F7.3°C 72% 10.0 mph WNW16.1 kmh WNW -- 29.54 in1000.3 mb 0.00 in0.0 mm 0.00 in0.0 mm 0.00 in0.0 mm
04:00 PM 53.6°F12.0°C 45.1°F7.3°C 73% 9.0 mph SW14.5 kmh SW 18.0 mph29.0 kmh 29.55 in1000.7 mb 0.00 in0.0 mm 0.00 in0.0 mm 0.00 in0.0 mm
04:05 PM 53.5°F11.9°C 45.3°F7.4°C 74% 4.0 mph SW6.4 kmh SW -- 29.55 in1000.7 mb 0.00 in0.0 mm 0.00 in0.0 mm 0.00 in0.0 mm
04:10 PM 53.5°F11.9°C 45.3°F7.4°C 74% 4.0 mph S6.4 kmh S -- 29.55 in1000.7 mb 0.00 in0.0 mm 0.00 in0.0 mm 0.00 in0.0 mm
04:15 PM 53.4°F11.9°C 45.3°F7.4°C 74% 3.0 mph SW4.8 kmh SW -- 29.55 in1000.7 mb 0.00 in0.0 mm 0.00 in0.0 mm 0.00 in0.0 mm
04:20 PM 53.3°F11.8°C 45.1°F7.3°C 74% 4.0 mph SW6.4 kmh SW -- 29.55 in1000.7 mb 0.00 in0.0 mm 0.00 in0.0 mm 0.00 in0.0 mm
04:25 PM 53.2°F11.8°C 44.8°F7.1°C 73% 7.0 mph S11.3 kmh S 14.0 mph22.5 kmh 29.55 in1000.7 mb 0.00 in0.0 mm 0.00 in0.0 mm 0.00 in0.0 mm
04:30 PM 53.1°F11.7°C 45.0°F7.2°C 74% 9.0 mph WSW14.5 kmh WSW -- 29.55 in1000.7 mb 0.00 in0.0 mm 0.00 in0.0 mm 0.00 in0.0 mm
04:35 PM 52.7°F11.5°C 44.6°F7.0°C 74% 7.0 mph SW11.3 kmh SW -- 29.55 in1000.7 mb 0.00 in0.0 mm 0.00 in0.0 mm 0.00 in0.0 mm
04:40 PM 52.4°F11.3°C 44.6°F7.0°C 75% 6.0 mph SW9.7 kmh SW -- 29.55 in1000.7 mb 0.00 in0.0 mm 0.00 in0.0 mm 0.00 in0.0 mm
04:45 PM 52.2°F11.2°C 44.8°F7.1°C 76% 3.0 mph SW4.8 kmh SW -- 29.55 in1000.7 mb 0.00 in0.0 mm 0.00 in0.0 mm 0.00 in0.0 mm
04:50 PM 52.1°F11.2°C 44.8°F7.1°C 76% 12.0 mph SW19.3 kmh SW 18.0 mph29.0 kmh 29.55 in1000.7 mb 0.00 in0.0 mm 0.00 in0.0 mm 0.00 in0.0 mm
04:55 PM 52.2°F11.2°C 44.8°F7.1°C 76% 6.0 mph S9.7 kmh S -- 29.55 in1000.7 mb 0.00 in0.0 mm 0.00 in0.0 mm 0.00 in0.0 mm
05:00 PM 52.1°F11.2°C 44.8°F7.1°C 76% 7.0 mph WSW11.3 kmh WSW -- 29.55 in1000.7 mb 0.00 in0.0 mm 0.00 in0.0 mm 0.00 in0.0 mm
05:05 PM 52.0°F11.1°C 44.6°F7.0°C 76% 5.0 mph WSW8.0 kmh WSW -- 29.55 in1000.7 mb 0.00 in0.0 mm 0.00 in0.0 mm 0.00 in0.0 mm
05:10 PM 51.9°F11.1°C 44.6°F7.0°C 76% 10.0 mph SW16.1 kmh SW -- 29.55 in1000.7 mb 0.00 in0.0 mm 0.00 in0.0 mm 0.00 in0.0 mm
05:15 PM 51.7°F10.9°C 44.6°F7.0°C 77% 4.0 mph WSW6.4 kmh WSW 14.0 mph22.5 kmh 29.55 in1000.7 mb 0.00 in0.0 mm 0.00 in0.0 mm 0.00 in0.0 mm
05:20 PM 51.5°F10.8°C 44.4°F6.9°C 77% 8.0 mph W12.9 kmh W -- 29.55 in1000.7 mb 0.00 in0.0 mm 0.00 in0.0 mm 0.00 in0.0 mm
05:25 PM 51.2°F10.7°C 44.6°F7.0°C 78% 13.0 mph W20.9 kmh W -- 29.55 in1000.7 mb 0.00 in0.0 mm 0.00 in0.0 mm 0.00 in0.0 mm
05:30 PM 51.1°F10.6°C 44.4°F6.9°C 78% 12.0 mph WSW19.3 kmh WSW -- 29.55 in1000.7 mb 0.00 in0.0 mm 0.00 in0.0 mm 0.00 in0.0 mm
05:35 PM 50.9°F10.5°C 44.2°F6.8°C 78% 6.0 mph WSW9.7 kmh WSW -- 29.56 in1001.0 mb 0.00 in0.0 mm 0.00 in0.0 mm 0.00 in0.0 mm
05:40 PM 50.6°F10.3°C 43.9°F6.6°C 78% 8.0 mph SW12.9 kmh SW 22.0 mph35.4 kmh 29.55 in1000.7 mb 0.00 in0.0 mm 0.00 in0.0 mm 0.00 in0.0 mm
05:45 PM 50.3°F10.2°C 44.1°F6.7°C 79% 3.0 mph WSW4.8 kmh WSW -- 29.56 in1001.0 mb 0.01 in0.3 mm 0.12 in3.0 mm 0.01 in0.3 mm
05:50 PM 50.1°F10.1°C 44.2°F6.8°C 80% 5.0 mph SSW8.0 kmh SSW -- 29.56 in1001.0 mb 0.01 in0.3 mm 0.00 in0.0 mm 0.01 in0.3 mm
05:55 PM 49.9°F9.9°C 43.9°F6.6°C 80% 13.0 mph SW20.9 kmh SW -- 29.56 in1001.0 mb 0.01 in0.3 mm 0.00 in0.0 mm 0.01 in0.3 mm
06:00 PM 50.0°F10.0°C 43.7°F6.5°C 79% 10.0 mph SW16.1 kmh SW -- 29.55 in1000.7 mb 0.01 in0.3 mm 0.00 in0.0 mm 0.01 in0.3 mm
06:05 PM 49.9°F9.9°C 43.5°F6.4°C 79% 5.0 mph SW8.0 kmh SW 19.0 mph30.6 kmh 29.55 in1000.7 mb 0.01 in0.3 mm 0.00 in0.0 mm 0.01 in0.3 mm
06:10 PM 49.7°F9.8°C 43.7°F6.5°C 80% 11.0 mph SW17.7 kmh SW -- 29.55 in1000.7 mb 0.01 in0.3 mm 0.00 in0.0 mm 0.01 in0.3 mm
06:15 PM 49.7°F9.8°C 43.7°F6.5°C 80% 7.0 mph SW11.3 kmh SW -- 29.55 in1000.7 mb 0.01 in0.3 mm 0.00 in0.0 mm 0.01 in0.3 mm
06:20 PM 50.0°F10.0°C 43.7°F6.5°C 79% 6.0 mph SW9.7 kmh SW -- 29.55 in1000.7 mb 0.01 in0.3 mm 0.00 in0.0 mm 0.01 in0.3 mm
06:25 PM 50.3°F10.2°C 43.7°F6.5°C 78% 8.0 mph WSW12.9 kmh WSW -- 29.55 in1000.7 mb 0.01 in0.3 mm 0.00 in0.0 mm 0.01 in0.3 mm
06:30 PM 50.9°F10.5°C 43.5°F6.4°C 76% 14.0 mph SW22.5 kmh SW 24.0 mph38.6 kmh 29.55 in1000.7 mb 0.01 in0.3 mm 0.00 in0.0 mm 0.01 in0.3 mm
06:35 PM 50.8°F10.4°C 43.5°F6.4°C 76% 3.0 mph SW4.8 kmh SW -- 29.54 in1000.3 mb 0.01 in0.3 mm 0.00 in0.0 mm 0.01 in0.3 mm
06:40 PM 50.6°F10.3°C 43.5°F6.4°C 77% 14.0 mph SSW22.5 kmh SSW -- 29.54 in1000.3 mb 0.01 in0.3 mm 0.00 in0.0 mm 0.01 in0.3 mm
06:45 PM 50.6°F10.3°C 43.5°F6.4°C 77% 8.0 mph SW12.9 kmh SW -- 29.55 in1000.7 mb 0.00 in0.0 mm 0.00 in0.0 mm 0.01 in0.3 mm
06:50 PM 50.5°F10.3°C 43.5°F6.4°C 77% 14.0 mph SW22.5 kmh SW -- 29.54 in1000.3 mb 0.00 in0.0 mm 0.00 in0.0 mm 0.01 in0.3 mm
06:55 PM 50.5°F10.3°C 43.5°F6.4°C 77% 14.0 mph SW22.5 kmh SW 24.0 mph38.6 kmh 29.54 in1000.3 mb 0.00 in0.0 mm 0.00 in0.0 mm 0.01 in0.3 mm
07:00 PM 50.5°F10.3°C 43.5°F6.4°C 77% 5.0 mph SSW8.0 kmh SSW -- 29.54 in1000.3 mb 0.00 in0.0 mm 0.00 in0.0 mm 0.01 in0.3 mm
07:05 PM 50.6°F10.3°C 43.3°F6.3°C 76% 12.0 mph SSW19.3 kmh SSW -- 29.54 in1000.3 mb 0.00 in0.0 mm 0.00 in0.0 mm 0.01 in0.3 mm
07:10 PM 50.6°F10.3°C 43.3°F6.3°C 76% 13.0 mph S20.9 kmh S -- 29.54 in1000.3 mb 0.00 in0.0 mm 0.00 in0.0 mm 0.01 in0.3 mm
07:15 PM 51.1°F10.6°C 43.2°F6.2°C 74% 14.0 mph SSW22.5 kmh SSW -- 29.54 in1000.3 mb 0.00 in0.0 mm 0.00 in0.0 mm 0.01 in0.3 mm
07:20 PM 51.1°F10.6°C 43.2°F6.2°C 74% 7.0 mph SSW11.3 kmh SSW 22.0 mph35.4 kmh 29.54 in1000.3 mb 0.00 in0.0 mm 0.00 in0.0 mm 0.01 in0.3 mm
07:25 PM 51.1°F10.6°C 43.2°F6.2°C 74% 8.0 mph SW12.9 kmh SW -- 29.54 in1000.3 mb 0.00 in0.0 mm 0.00 in0.0 mm 0.01 in0.3 mm
07:30 PM 51.1°F10.6°C 43.5°F6.4°C 75% 10.0 mph SW16.1 kmh SW -- 29.54 in1000.3 mb 0.00 in0.0 mm 0.00 in0.0 mm 0.01 in0.3 mm
07:35 PM 51.0°F10.6°C 43.7°F6.5°C 76% 8.0 mph S12.9 kmh S -- 29.54 in1000.3 mb 0.00 in0.0 mm 0.00 in0.0 mm 0.01 in0.3 mm
07:40 PM 51.1°F10.6°C 43.2°F6.2°C 74% 13.0 mph WSW20.9 kmh WSW -- 29.54 in1000.3 mb 0.00 in0.0 mm 0.00 in0.0 mm 0.01 in0.3 mm
07:45 PM 51.4°F10.8°C 42.8°F6.0°C 72% 18.0 mph SW29.0 kmh SW 24.0 mph38.6 kmh 29.53 in1000.0 mb 0.00 in0.0 mm 0.00 in0.0 mm 0.01 in0.3 mm
07:50 PM 51.4°F10.8°C 43.2°F6.2°C 73% 14.0 mph S22.5 kmh S -- 29.53 in1000.0 mb 0.00 in0.0 mm 0.00 in0.0 mm 0.01 in0.3 mm
07:55 PM 51.2°F10.7°C 43.3°F6.3°C 74% 9.0 mph SW14.5 kmh SW -- 29.53 in1000.0 mb 0.00 in0.0 mm 0.00 in0.0 mm 0.01 in0.3 mm
08:00 PM 51.0°F10.6°C 43.2°F6.2°C 74% 8.0 mph S12.9 kmh S -- 29.54 in1000.3 mb 0.00 in0.0 mm 0.00 in0.0 mm 0.01 in0.3 mm
08:05 PM 51.1°F10.6°C 43.5°F6.4°C 75% 14.0 mph WSW22.5 kmh WSW -- 29.54 in1000.3 mb 0.00 in0.0 mm 0.00 in0.0 mm 0.01 in0.3 mm
08:10 PM 51.2°F10.7°C 43.3°F6.3°C 74% 18.0 mph S29.0 kmh S 27.0 mph43.5 kmh 29.54 in1000.3 mb 0.00 in0.0 mm 0.00 in0.0 mm 0.01 in0.3 mm
08:15 PM 51.2°F10.7°C 43.3°F6.3°C 74% 8.0 mph SW12.9 kmh SW -- 29.53 in1000.0 mb 0.00 in0.0 mm 0.00 in0.0 mm 0.01 in0.3 mm
08:20 PM 51.1°F10.6°C 42.8°F6.0°C 73% 9.0 mph WSW14.5 kmh WSW -- 29.53 in1000.0 mb 0.00 in0.0 mm 0.00 in0.0 mm 0.01 in0.3 mm
08:25 PM 51.3°F10.7°C 42.6°F5.9°C 72% 15.0 mph S24.1 kmh S -- 29.53 in1000.0 mb 0.00 in0.0 mm 0.00 in0.0 mm 0.01 in0.3 mm
08:30 PM 51.4°F10.8°C 42.4°F5.8°C 71% 9.0 mph S14.5 kmh S -- 29.53 in1000.0 mb 0.00 in0.0 mm 0.00 in0.0 mm 0.01 in0.3 mm
08:35 PM 51.5°F10.8°C 42.4°F5.8°C 71% 12.0 mph WSW19.3 kmh WSW 22.0 mph35.4 kmh 29.53 in1000.0 mb 0.00 in0.0 mm 0.00 in0.0 mm 0.01 in0.3 mm
08:40 PM 51.4°F10.8°C 42.8°F6.0°C 72% 6.0 mph S9.7 kmh S -- 29.53 in1000.0 mb 0.00 in0.0 mm 0.00 in0.0 mm 0.01 in0.3 mm
08:45 PM 51.4°F10.8°C 42.8°F6.0°C 72% 16.0 mph SSW25.7 kmh SSW -- 29.53 in1000.0 mb 0.00 in0.0 mm 0.00 in0.0 mm 0.01 in0.3 mm
08:50 PM 51.3°F10.7°C 43.0°F6.1°C 73% 13.0 mph SSW20.9 kmh SSW -- 29.53 in1000.0 mb 0.00 in0.0 mm 0.00 in0.0 mm 0.01 in0.3 mm
08:55 PM 51.1°F10.6°C 43.2°F6.2°C 74% 6.0 mph SW9.7 kmh SW -- 29.53 in1000.0 mb 0.00 in0.0 mm 0.00 in0.0 mm 0.01 in0.3 mm
09:00 PM 51.0°F10.6°C 43.2°F6.2°C 74% 9.0 mph S14.5 kmh S 18.0 mph29.0 kmh 29.53 in1000.0 mb 0.00 in0.0 mm 0.00 in0.0 mm 0.01 in0.3 mm
09:05 PM 51.0°F10.6°C 43.2°F6.2°C 74% 11.0 mph S17.7 kmh S -- 29.54 in1000.3 mb 0.00 in0.0 mm 0.00 in0.0 mm 0.01 in0.3 mm
09:10 PM 51.0°F10.6°C 43.2°F6.2°C 74% 11.0 mph SW17.7 kmh SW -- 29.53 in1000.0 mb 0.00 in0.0 mm 0.00 in0.0 mm 0.01 in0.3 mm
09:15 PM 50.9°F10.5°C 43.3°F6.3°C 75% 11.0 mph S17.7 kmh S -- 29.53 in1000.0 mb 0.00 in0.0 mm 0.00 in0.0 mm 0.01 in0.3 mm
09:20 PM 50.9°F10.5°C 43.3°F6.3°C 75% 5.0 mph WSW8.0 kmh WSW -- 29.53 in1000.0 mb 0.00 in0.0 mm 0.00 in0.0 mm 0.01 in0.3 mm
09:25 PM 50.9°F10.5°C 43.3°F6.3°C 75% 1.0 mph S1.6 kmh S 13.0 mph20.9 kmh 29.53 in1000.0 mb 0.00 in0.0 mm 0.00 in0.0 mm 0.01 in0.3 mm
09:30 PM 50.9°F10.5°C 43.5°F6.4°C 76% 11.0 mph S17.7 kmh S -- 29.53 in1000.0 mb 0.00 in0.0 mm 0.00 in0.0 mm 0.01 in0.3 mm
09:35 PM 51.0°F10.6°C 43.7°F6.5°C 76% 6.0 mph SW9.7 kmh SW -- 29.53 in1000.0 mb 0.00 in0.0 mm 0.00 in0.0 mm 0.01 in0.3 mm
09:40 PM 51.1°F10.6°C 43.7°F6.5°C 76% 11.0 mph WSW17.7 kmh WSW -- 29.52 in999.7 mb 0.00 in0.0 mm 0.00 in0.0 mm 0.01 in0.3 mm
09:45 PM 51.3°F10.7°C 43.5°F6.4°C 75% 3.0 mph SW4.8 kmh SW -- 29.52 in999.7 mb 0.00 in0.0 mm 0.00 in0.0 mm 0.01 in0.3 mm
09:50 PM 51.5°F10.8°C 43.2°F6.2°C 73% 7.0 mph S11.3 kmh S 19.0 mph30.6 kmh 29.52 in999.7 mb 0.00 in0.0 mm 0.00 in0.0 mm 0.01 in0.3 mm
09:55 PM 51.6°F10.9°C 43.3°F6.3°C 73% 11.0 mph W17.7 kmh W -- 29.52 in999.7 mb 0.00 in0.0 mm 0.00 in0.0 mm 0.01 in0.3 mm
10:00 PM 51.5°F10.8°C 43.2°F6.2°C 73% 3.0 mph S4.8 kmh S -- 29.52 in999.7 mb 0.00 in0.0 mm 0.00 in0.0 mm 0.01 in0.3 mm
10:05 PM 51.6°F10.9°C 43.0°F6.1°C 72% 13.0 mph S20.9 kmh S -- 29.52 in999.7 mb 0.00 in0.0 mm 0.00 in0.0 mm 0.01 in0.3 mm
10:10 PM 51.7°F10.9°C 43.0°F6.1°C 72% 5.0 mph WSW8.0 kmh WSW -- 29.51 in999.3 mb 0.00 in0.0 mm 0.00 in0.0 mm 0.01 in0.3 mm
10:15 PM 51.8°F11.0°C 43.0°F6.1°C 72% 15.0 mph SW24.1 kmh SW 22.0 mph35.4 kmh 29.52 in999.7 mb 0.00 in0.0 mm 0.00 in0.0 mm 0.01 in0.3 mm
10:20 PM 51.8°F11.0°C 43.0°F6.1°C 72% 7.0 mph S11.3 kmh S -- 29.51 in999.3 mb 0.00 in0.0 mm 0.00 in0.0 mm 0.01 in0.3 mm
10:25 PM 51.5°F10.8°C 43.5°F6.4°C 74% 8.0 mph SSE12.9 kmh SSE -- 29.52 in999.7 mb 0.00 in0.0 mm 0.00 in0.0 mm 0.01 in0.3 mm
10:30 PM 51.1°F10.6°C 43.5°F6.4°C 75% 3.0 mph SSW4.8 kmh SSW -- 29.52 in999.7 mb 0.00 in0.0 mm 0.00 in0.0 mm 0.01 in0.3 mm
10:35 PM 50.8°F10.4°C 43.5°F6.4°C 76% 5.0 mph S8.0 kmh S -- 29.52 in999.7 mb 0.00 in0.0 mm 0.00 in0.0 mm 0.01 in0.3 mm
10:40 PM 50.6°F10.3°C 43.5°F6.4°C 77% 2.0 mph SSW3.2 kmh SSW 16.0 mph25.7 kmh 29.52 in999.7 mb 0.00 in0.0 mm 0.00 in0.0 mm 0.01 in0.3 mm
10:45 PM 50.6°F10.3°C 43.5°F6.4°C 77% 5.0 mph SW8.0 kmh SW -- 29.52 in999.7 mb 0.00 in0.0 mm 0.00 in0.0 mm 0.01 in0.3 mm
10:50 PM 50.6°F10.3°C 43.5°F6.4°C 77% 13.0 mph S20.9 kmh S -- 29.51 in999.3 mb 0.00 in0.0 mm 0.00 in0.0 mm 0.01 in0.3 mm
10:55 PM 50.6°F10.3°C 43.9°F6.6°C 78% 5.0 mph SW8.0 kmh SW -- 29.51 in999.3 mb 0.00 in0.0 mm 0.00 in0.0 mm 0.01 in0.3 mm
11:00 PM 50.6°F10.3°C 43.9°F6.6°C 78% 10.0 mph SW16.1 kmh SW -- 29.51 in999.3 mb 0.00 in0.0 mm 0.00 in0.0 mm 0.01 in0.3 mm
11:05 PM 50.6°F10.3°C 44.2°F6.8°C 79% 5.0 mph W8.0 kmh W 18.0 mph29.0 kmh 29.51 in999.3 mb 0.00 in0.0 mm 0.00 in0.0 mm 0.01 in0.3 mm
11:10 PM 50.5°F10.3°C 44.2°F6.8°C 79% 13.0 mph WSW20.9 kmh WSW -- 29.51 in999.3 mb 0.01 in0.3 mm 0.12 in3.0 mm 0.01 in0.3 mm
11:15 PM 50.5°F10.3°C 44.2°F6.8°C 79% 7.0 mph SW11.3 kmh SW -- 29.51 in999.3 mb 0.01 in0.3 mm 0.00 in0.0 mm 0.01 in0.3 mm
11:20 PM 50.4°F10.2°C 44.4°F6.9°C 80% 14.0 mph WSW22.5 kmh WSW -- 29.51 in999.3 mb 0.01 in0.3 mm 0.00 in0.0 mm 0.01 in0.3 mm
11:25 PM 50.3°F10.2°C 44.4°F6.9°C 80% 12.0 mph SW19.3 kmh SW -- 29.51 in999.3 mb 0.02 in0.5 mm 0.12 in3.0 mm 0.02 in0.5 mm
11:30 PM 50.4°F10.2°C 44.4°F6.9°C 80% 11.0 mph SSW17.7 kmh SSW 23.0 mph37.0 kmh 29.51 in999.3 mb 0.02 in0.5 mm 0.00 in0.0 mm 0.02 in0.5 mm
11:35 PM 50.3°F10.2°C 44.4°F6.9°C 80% 12.0 mph SW19.3 kmh SW -- 29.51 in999.3 mb 0.02 in0.5 mm 0.00 in0.0 mm 0.02 in0.5 mm
11:40 PM 50.1°F10.1°C 44.6°F7.0°C 81% 8.0 mph SSE12.9 kmh SSE -- 29.50 in999.0 mb 0.02 in0.5 mm 0.00 in0.0 mm 0.02 in0.5 mm
11:45 PM 50.0°F10.0°C 43.7°F6.5°C 79% 10.0 mph SSW16.1 kmh SSW -- 29.50 in999.0 mb 0.02 in0.5 mm 0.00 in0.0 mm 0.02 in0.5 mm
11:50 PM 50.0°F10.0°C 43.3°F6.3°C 78% 11.0 mph S17.7 kmh S -- 29.50 in999.0 mb 0.02 in0.5 mm 0.00 in0.0 mm 0.02 in0.5 mm
11:55 PM 50.2°F10.1°C 43.9°F6.6°C 79% 7.0 mph WSW11.3 kmh WSW 16.0 mph25.7 kmh 29.50 in999.0 mb 0.02 in0.5 mm 0.00 in0.0 mm 0.02 in0.5 mm